Time;durP1;ratioP1;P1;durP2;ratioP2;P2;SDS_P1;SDS_P2;PMS_P1;PMS_P2;Temp;Humidity;BMP_temperature;BMP_pressure;BME280_temperature;BME280_humidity;BME280_pressure;Samples;Min_cycle;Max_cycle;Signal;HPM_P1;HPM_P2
2021/01/11 00:00:38;;;;;;;62.27;40.23;;;6.40;99.90;;;6.39;81.21;101994.28;5070507;28;20508;-74
2021/01/11 00:03:06;;;;;;;63.40;41.87;;;6.40;99.90;;;6.44;81.56;102020.72;5071591;28;20113;-75
2021/01/11 00:05:34;;;;;;;65.60;42.70;;;6.30;99.90;;;6.38;81.98;102024.06;5071487;28;20044;-75
2021/01/11 00:08:01;;;;;;;65.40;42.23;;;6.20;99.90;;;6.44;81.91;102019.81;5071782;28;20037;-75
2021/01/11 00:10:31;;;;;;;63.60;43.10;;;6.20;99.90;;;6.39;82.33;102023.19;5071889;28;20118;-75
2021/01/11 00:13:01;;;;;;;59.97;41.37;;;6.20;99.90;;;6.46;82.26;102016.41;5071706;28;20068;-75
2021/01/11 00:15:29;;;;;;;67.67;43.20;;;6.20;99.90;;;6.44;82.55;102019.81;5071421;28;20444;-75
2021/01/11 00:17:56;;;;;;;67.20;43.10;;;6.20;99.90;;;6.39;82.51;102017.03;5071706;28;20040;-75
2021/01/11 00:20:25;;;;;;;68.13;44.07;;;6.20;99.90;;;6.43;82.29;102003.16;5071658;28;20072;-75
2021/01/11 00:22:55;;;;;;;66.60;44.07;;;6.20;99.90;;;6.43;82.67;102002.28;5071694;28;20119;-76
2021/01/11 00:25:22;;;;;;;70.17;45.40;;;6.20;99.90;;;6.41;82.61;101988.19;5071364;28;20040;-75
2021/01/11 00:27:51;;;;;;;67.90;43.80;;;6.20;99.90;;;6.38;82.80;101987.25;5071340;28;20111;-75
2021/01/11 00:30:23;;;;;;;64.33;42.27;;;6.20;99.90;;;6.48;82.63;101988.44;5071694;28;20059;-75
2021/01/11 00:32:51;;;;;;;68.20;44.23;;;6.20;99.90;;;6.45;82.67;101983.06;5072906;28;20151;-75
2021/01/11 00:35:18;;;;;;;63.47;42.53;;;6.20;99.90;;;6.54;82.53;101983.38;5074005;28;20083;-75
2021/01/11 00:37:46;;;;;;;64.83;44.37;;;6.30;99.90;;;6.51;82.36;101982.34;5073383;28;20041;-76
2021/01/11 00:40:14;;;;;;;62.73;42.97;;;6.30;99.90;;;6.47;82.46;101968.22;5074753;28;20079;-75
2021/01/11 00:42:41;;;;;;;67.50;42.90;;;6.20;99.90;;;6.34;82.75;101989.75;5074769;28;20448;-76
2021/01/11 00:45:12;;;;;;;66.60;43.27;;;6.20;99.90;;;6.46;82.59;101979.59;5074962;28;20055;-75
2021/01/11 00:47:40;;;;;;;71.35;44.80;;;6.30;99.90;;;6.39;82.80;101970.63;5074945;28;20037;-76
2021/01/11 00:50:12;;;;;;;62.27;42.60;;;6.20;99.90;;;6.51;82.97;101979.72;5073663;28;20048;-75
2021/01/11 00:52:43;;;;;;;68.45;45.13;;;6.30;99.90;;;6.47;82.66;101981.38;5073682;28;20044;-76
2021/01/11 00:55:16;;;;;;;68.27;42.97;;;6.20;99.90;;;6.46;82.78;101974.34;5073649;28;20390;-75
2021/01/11 00:57:53;;;;;;;69.10;45.30;;;6.20;99.90;;;6.44;82.69;101960.28;5073516;28;20072;-75
2021/01/11 01:00:24;;;;;;;66.97;43.53;;;6.30;99.90;;;6.49;83.15;101976.16;5073282;28;20053;-76
2021/01/11 01:03:02;;;;;;;72.90;45.23;;;6.20;99.90;;;6.33;83.01;101938.03;5090293;28;20064;-74
2021/01/11 01:05:30;;;;;;;68.90;44.40;;;6.30;99.90;;;6.55;82.74;101971.09;5073337;28;20044;-75
2021/01/11 01:08:05;;;;;;;67.00;42.43;;;6.30;99.90;;;6.60;82.97;101964.25;5074596;28;20090;-76
2021/01/11 01:10:32;;;;;;;70.03;44.45;;;6.30;99.90;;;6.58;82.67;101966.81;5073044;28;20140;-76
2021/01/11 01:13:00;;;;;;;72.07;44.43;;;6.40;99.90;;;6.47;82.47;101959.44;5073052;28;20057;-75
2021/01/11 01:15:30;;;;;;;73.53;45.43;;;6.30;99.90;;;6.47;82.93;101964.72;5074350;28;20097;-75
2021/01/11 01:17:57;;;;;;;69.60;45.05;;;6.30;99.90;;;6.57;82.58;101953.63;5074503;28;20064;-75
2021/01/11 01:20:25;;;;;;;68.83;43.83;;;6.30;99.90;;;6.55;82.75;101965.81;5074001;28;20471;-73
2021/01/11 01:22:56;;;;;;;70.50;43.17;;;6.30;99.90;;;6.50;82.53;101946.41;5074469;28;20037;-76
2021/01/11 01:25:23;;;;;;;69.83;43.87;;;6.40;99.90;;;6.58;82.66;101960.69;5074136;28;20044;-75
2021/01/11 01:27:53;;;;;;;73.73;45.63;;;6.40;99.90;;;6.52;83.00;101961.41;5073968;28;20044;-75
2021/01/11 01:30:23;;;;;;;70.83;44.80;;;6.30;99.90;;;6.55;82.88;101969.34;5074345;28;20048;-75
2021/01/11 01:32:51;;;;;;;67.90;44.30;;;6.30;99.90;;;6.59;82.92;101954.56;5106494;28;20103;-75
2021/01/11 01:35:20;;;;;;;67.57;44.20;;;6.30;99.90;;;6.56;83.07;101950.13;5073865;28;20044;-75
2021/01/11 01:37:47;;;;;;;73.03;44.93;;;6.30;99.90;;;6.53;83.15;101957.00;5074181;28;20489;-75
2021/01/11 01:40:16;;;;;;;68.77;44.67;;;6.30;99.90;;;6.58;83.18;101944.91;5072637;28;20072;-75
2021/01/11 01:42:45;;;;;;;72.20;45.17;;;6.30;99.90;;;6.56;83.26;101951.84;5073942;28;20037;-75
2021/01/11 01:45:15;;;;;;;73.40;44.53;;;6.30;99.90;;;6.61;83.17;101942.34;5089261;28;20072;-75
2021/01/11 01:47:46;;;;;;;70.18;44.60;;;6.40;99.90;;;6.56;83.33;101957.13;5073724;28;20040;-75
2021/01/11 01:50:14;;;;;;;71.40;45.22;;;6.40;99.90;;;6.64;83.31;101952.97;5073705;28;20044;-75
2021/01/11 01:52:45;;;;;;;66.47;42.73;;;6.40;99.90;;;6.61;83.16;101944.97;5073486;28;20093;-75
2021/01/11 01:55:17;;;;;;;71.33;44.27;;;6.40;99.90;;;6.58;83.23;101950.16;5073293;28;20094;-75
2021/01/11 01:57:44;;;;;;;67.83;43.80;;;6.30;99.90;;;6.49;83.40;101955.13;5073499;28;20048;-76
2021/01/11 02:00:13;;;;;;;68.83;44.37;;;6.30;99.90;;;6.56;83.63;101952.75;5073164;28;20129;-75
2021/01/11 02:02:42;;;;;;;73.00;45.57;;;6.40;99.90;;;6.58;83.90;101958.06;5073288;28;20045;-76
2021/01/11 02:05:10;;;;;;;74.83;46.20;;;6.40;99.90;;;6.55;83.65;101950.06;5073071;28;20067;-75
2021/01/11 02:07:49;;;;;;;69.77;43.97;;;6.40;99.90;;;6.50;83.93;101965.72;5072829;28;20052;-75
2021/01/11 02:10:26;;;;;;;76.00;45.67;;;6.30;99.90;;;6.60;83.86;101956.34;5073298;28;20535;-75
2021/01/11 02:13:31;;;;;;;76.73;47.60;;;6.30;99.90;;;6.47;84.06;101941.06;5073033;28;20105;-74
2021/01/11 02:16:09;;;;;;;73.23;46.17;;;6.30;99.90;;;5.95;84.03;101823.06;5072832;28;20472;-75
2021/01/11 02:18:49;;;;;;;76.60;45.63;;;6.30;99.90;;;6.48;84.07;101934.97;5073144;28;20105;-75
2021/01/11 02:22:02;;;;;;;73.90;45.47;;;6.30;99.90;;;6.53;84.28;101930.72;5073081;28;20037;-75
2021/01/11 02:25:13;;;;;;;75.20;46.70;;;6.30;99.90;;;6.56;84.25;101926.47;5072691;28;20045;-74
2021/01/11 02:27:47;;;;;;;67.60;43.97;;;6.30;99.90;;;6.59;84.32;101921.28;5073002;28;20101;-75
2021/01/11 02:30:40;;;;;;;73.60;45.80;;;6.30;99.90;;;6.50;84.29;101915.78;5072789;28;20056;-75
2021/01/11 02:33:09;;;;;;;73.37;45.67;;;6.30;99.90;;;6.47;84.20;101915.69;5072662;28;20040;-74
2021/01/11 02:36:04;;;;;;;72.83;44.57;;;6.30;99.90;;;6.46;84.45;101921.78;5072501;28;20123;-74
2021/01/11 02:38:34;;;;;;;73.10;46.80;;;6.30;99.90;;;6.20;84.60;101863.22;5072685;28;20044;-75
2021/01/11 02:41:02;;;;;;;73.70;45.25;;;6.30;99.90;;;6.45;84.54;101916.47;5071428;28;20072;-75
2021/01/11 02:43:29;;;;;;;75.93;48.40;;;6.30;99.90;;;6.50;84.49;101922.78;5072344;28;20584;-74
2021/01/11 02:45:57;;;;;;;83.50;48.80;;;6.30;99.90;;;6.45;84.74;101926.97;5072303;28;20577;-75
2021/01/11 02:48:29;;;;;;;76.33;48.80;;;6.30;99.90;;;6.29;84.90;101923.91;5072568;28;20064;-74
2021/01/11 02:51:18;;;;;;;81.43;49.03;;;6.20;99.90;;;6.25;84.75;101911.53;5072351;28;20444;-75
2021/01/11 02:54:02;;;;;;;78.10;49.77;;;6.20;99.90;;;6.28;85.13;101927.41;5071745;28;20444;-74
2021/01/11 02:56:37;;;;;;;79.47;50.23;;;6.20;99.90;;;6.38;85.23;101942.59;5071112;28;20052;-76
2021/01/11 02:59:10;;;;;;;81.83;50.30;;;6.20;99.90;;;6.39;85.05;101943.47;5072112;28;20055;-75
2021/01/11 03:01:47;;;;;;;80.10;49.07;;;6.20;99.90;;;6.27;85.17;101916.84;5072202;28;20460;-74
2021/01/11 03:04:22;;;;;;;78.90;50.10;;;6.20;99.90;;;6.28;85.07;101930.03;5072421;28;20063;-75
2021/01/11 03:07:00;;;;;;;84.33;50.53;;;6.10;99.90;;;6.29;84.88;101900.25;5072075;28;20052;-74
2021/01/11 03:09:28;;;;;;;79.47;49.20;;;6.20;99.90;;;6.49;84.87;101920.97;5072278;28;20090;-75
2021/01/11 03:11:57;;;;;;;77.97;50.53;;;6.20;99.90;;;6.40;84.76;101908.47;5072331;28;20033;-75
2021/01/11 03:14:24;;;;;;;79.00;51.33;;;6.20;99.90;;;6.42;84.91;101908.50;5087803;28;20056;-75
2021/01/11 03:16:53;;;;;;;79.30;49.10;;;6.30;99.90;;;6.39;84.94;101904.94;5072024;28;20233;-75
2021/01/11 03:19:21;;;;;;;87.90;51.60;;;6.20;99.90;;;6.40;84.80;101916.34;5072237;28;20044;-75
2021/01/11 03:21:49;;;;;;;83.50;51.33;;;6.20;99.90;;;6.39;84.80;101917.19;5087684;28;20052;-74
2021/01/11 03:24:18;;;;;;;82.47;50.83;;;6.20;99.90;;;6.37;84.89;101908.38;5071887;28;20110;-75
2021/01/11 03:26:46;;;;;;;82.57;50.13;;;6.20;99.90;;;6.33;85.01;101903.88;5072195;28;20044;-75
2021/01/11 03:29:14;;;;;;;82.20;49.17;;;6.20;99.90;;;6.52;84.80;101921.06;5071865;28;20072;-73
2021/01/11 03:31:42;;;;;;;80.70;51.33;;;6.30;99.90;;;6.29;84.94;101907.28;5072108;28;20122;-75
2021/01/11 03:34:12;;;;;;;76.23;50.30;;;6.20;99.90;;;6.49;84.94;101913.09;5071715;28;20044;-75
2021/01/11 03:36:40;;;;;;;82.10;50.83;;;6.30;99.90;;;6.55;84.87;101926.41;5072008;28;20422;-74
2021/01/11 03:39:09;;;;;;;78.80;50.30;;;6.30;99.90;;;6.46;84.71;101919.16;5072050;28;20080;-76
2021/01/11 03:41:38;;;;;;;79.43;49.80;;;6.30;99.90;;;6.60;84.51;101919.56;5071698;28;20413;-74
2021/01/11 03:44:08;;;;;;;78.53;49.90;;;6.40;99.90;;;6.66;84.22;101907.47;5071992;28;20041;-75
2021/01/11 03:46:35;;;;;;;73.37;48.07;;;6.40;99.90;;;6.65;84.35;101891.66;5070603;28;20080;-73
2021/01/11 03:49:03;;;;;;;78.00;49.03;;;6.50;99.90;;;6.64;84.36;101889.88;5071646;28;20052;-75
2021/01/11 03:51:34;;;;;;;73.00;47.80;;;6.40;99.90;;;6.57;84.45;101890.53;5071648;28;20040;-74
2021/01/11 03:54:02;;;;;;;75.73;49.40;;;6.40;99.90;;;6.54;84.57;101895.72;5071611;28;20040;-75
2021/01/11 03:56:30;;;;;;;75.40;47.60;;;6.40;99.90;;;6.61;84.61;101893.31;5071531;28;20134;-76
2021/01/11 03:58:57;;;;;;;79.90;50.57;;;6.40;99.90;;;6.48;84.55;101885.94;5071579;28;20075;-75
2021/01/11 04:01:26;;;;;;;77.47;48.17;;;6.30;99.90;;;6.47;84.90;101888.50;5071542;28;20118;-75
2021/01/11 04:03:54;;;;;;;70.27;46.50;;;6.30;99.90;;;6.55;84.94;101876.47;5071792;28;20139;-75
2021/01/11 04:06:24;;;;;;;70.53;47.10;;;6.30;99.90;;;6.63;84.44;101861.81;5072775;28;20095;-74
2021/01/11 04:08:52;;;;;;;65.23;43.87;;;6.40;99.90;;;6.64;84.60;101866.22;5075224;28;20068;-75
2021/01/11 04:11:20;;;;;;;65.90;43.33;;;6.40;99.90;;;6.58;84.48;101859.03;5074158;28;20048;-75
2021/01/11 04:13:51;;;;;;;66.60;43.57;;;6.40;99.90;;;6.55;84.45;101858.06;5075265;28;20118;-75
2021/01/11 04:16:18;;;;;;;63.03;41.83;;;6.40;99.90;;;6.61;84.48;101856.50;5075512;28;20113;-75
2021/01/11 04:18:46;;;;;;;63.83;41.03;;;6.40;99.90;;;6.56;84.50;101841.47;5075071;28;20444;-75
2021/01/11 04:21:13;;;;;;;59.90;40.10;;;6.40;99.90;;;6.54;84.90;101833.56;5074990;28;20056;-74
2021/01/11 04:23:44;;;;;;;60.67;38.17;;;6.30;99.90;;;6.57;84.59;101833.63;5073954;28;20405;-75
2021/01/11 04:26:12;;;;;;;60.40;37.75;;;6.40;99.90;;;6.57;84.59;101843.22;5073996;28;20045;-75
2021/01/11 04:28:40;;;;;;;54.00;38.07;;;6.40;99.90;;;6.62;84.65;101853.03;5075124;28;20068;-74
2021/01/11 04:31:08;;;;;;;51.63;36.00;;;6.40;99.90;;;6.57;84.39;101849.38;5075121;28;20072;-75
2021/01/11 04:33:35;;;;;;;56.80;35.97;;;6.40;99.90;;;6.46;84.51;101826.28;5074705;28;20045;-74
2021/01/11 04:36:04;;;;;;;47.93;35.23;;;6.40;99.90;;;6.54;84.54;101849.31;5074831;28;20124;-75
2021/01/11 04:38:32;;;;;;;48.67;33.13;;;6.40;99.90;;;6.52;84.56;101842.22;5074958;28;20045;-75
2021/01/11 04:41:01;;;;;;;48.57;32.23;;;6.30;99.90;;;6.35;84.49;101812.84;5073648;28;20448;-75
2021/01/11 04:43:38;;;;;;;49.60;31.70;;;6.30;99.90;;;6.53;84.52;101836.13;5074513;28;20048;-75
2021/01/11 04:46:09;;;;;;;49.50;32.37;;;6.30;99.90;;;6.29;84.80;101818.81;5074897;28;20036;-76
2021/01/11 04:48:36;;;;;;;52.72;34.33;;;6.30;99.90;;;6.45;84.65;101843.78;5074599;28;20044;-74
2021/01/11 04:51:06;;;;;;;49.97;33.80;;;6.30;99.90;;;6.45;84.62;101837.63;5073473;28;20101;-75
2021/01/11 04:53:35;;;;;;;52.03;36.57;;;6.30;99.90;;;6.33;84.87;101840.81;5090270;28;20045;-76
2021/01/11 04:56:05;;;;;;;51.60;36.03;;;6.20;99.90;;;6.43;84.59;101823.59;5074664;28;20045;-75
2021/01/11 04:58:56;;;;;;;55.00;37.00;;;6.20;99.90;;;6.26;84.47;101808.25;5073279;28;20056;-74
2021/01/11 05:01:26;;;;;;;52.63;35.30;;;6.20;99.90;;;6.36;84.70;101839.19;5074267;28;20075;-75
2021/01/11 05:03:59;;;;;;;56.27;36.03;;;6.20;99.90;;;6.35;85.11;101833.88;5074525;28;20102;-74
2021/01/11 05:06:27;;;;;;;55.70;36.23;;;6.10;99.90;;;6.29;84.89;101826.72;5074096;28;20551;-75
2021/01/11 05:09:08;;;;;;;57.13;38.00;;;6.10;99.90;;;6.13;85.12;101795.63;5089837;28;20495;-81
2021/01/11 05:11:36;;;;;;;56.03;35.50;;;6.10;99.90;;;6.28;85.26;101817.06;5074203;28;20586;-82
2021/01/11 05:14:05;;;;;;;56.03;37.60;;;6.10;99.90;;;6.34;85.37;101818.97;5074234;28;20098;-80
2021/01/11 05:16:32;;;;;;;50.67;35.83;;;6.10;99.90;;;6.40;85.20;101816.50;5073885;28;20040;-81
2021/01/11 05:19:25;;;;;;;55.97;38.43;;;6.20;99.90;;;6.47;85.20;101841.19;5073991;28;20052;-81
2021/01/11 05:21:53;;;;;;;58.10;39.03;;;6.20;99.90;;;6.41;84.97;101817.41;5073897;28;20541;-80
2021/01/11 05:24:35;;;;;;;55.80;36.37;;;6.20;99.90;;;6.43;85.06;101808.69;5072408;28;20055;-77
2021/01/11 05:27:09;;;;;;;57.93;37.93;;;6.20;99.90;;;6.48;85.05;101816.72;5074184;28;20162;-78
2021/01/11 05:29:39;;;;;;;58.83;36.13;;;6.20;99.90;;;6.33;84.96;101809.28;5074354;28;20041;-78
2021/01/11 05:32:09;;;;;;;55.67;36.10;;;6.20;99.90;;;6.33;84.81;101781.28;5073990;28;20040;-79
2021/01/11 05:34:48;;;;;;;56.40;37.47;;;6.20;99.90;;;6.46;84.80;101805.28;5074264;28;20111;-79
2021/01/11 05:37:37;;;;;;;50.67;35.87;;;6.30;99.90;;;6.44;85.10;101806.97;5073602;28;20045;-78
2021/01/11 05:40:11;;;;;;;52.70;35.93;;;6.20;99.90;;;6.30;85.05;101794.34;5089482;28;20642;-79
2021/01/11 05:42:40;;;;;;;53.65;36.97;;;6.20;99.90;;;6.20;85.37;101760.78;5073600;28;20044;-79
2021/01/11 05:45:17;;;;;;;51.43;35.40;;;6.20;99.90;;;6.36;85.26;101797.16;5072464;28;20048;-79
2021/01/11 05:48:04;;;;;;;50.23;34.27;;;6.20;99.90;;;6.33;85.21;101791.78;5073481;28;20520;-79
2021/01/11 05:50:40;;;;;;;51.37;33.93;;;6.20;99.90;;;6.38;85.54;101794.56;5073389;28;20048;-79
2021/01/11 05:53:19;;;;;;;48.80;33.57;;;6.20;99.90;;;6.42;85.24;101796.41;5073333;28;20044;-78
2021/01/11 05:55:47;;;;;;;47.03;32.70;;;6.20;99.90;;;6.31;85.23;101751.44;5073297;28;20478;-78
2021/01/11 05:58:15;;;;;;;45.07;30.17;;;6.30;99.90;;;6.50;85.36;101767.72;5073184;28;20113;-78
2021/01/11 06:00:43;;;;;;;42.97;28.77;;;6.30;99.90;;;6.57;85.02;101781.06;5073177;28;20123;-79
2021/01/11 06:03:12;;;;;;;41.73;28.77;;;6.30;99.90;;;6.47;85.14;101775.50;5088992;28;20045;-79
2021/01/11 06:05:41;;;;;;;39.63;28.07;;;6.30;99.90;;;6.57;85.23;101769.66;5072360;28;20044;-78
2021/01/11 06:08:10;;;;;;;34.57;26.33;;;6.40;99.90;;;6.60;85.11;101743.47;5073506;28;20436;-78
2021/01/11 06:10:38;;;;;;;34.77;24.57;;;6.40;99.90;;;6.73;85.10;101753.44;5073525;28;20064;-78
2021/01/11 06:13:09;;;;;;;36.10;25.47;;;6.40;99.90;;;6.70;84.83;101755.97;5072932;28;20123;-78
2021/01/11 06:15:39;;;;;;;36.07;23.90;;;6.50;99.90;;;6.63;84.79;101769.81;5088910;28;20521;-79
2021/01/11 06:18:13;;;;;;;32.10;23.15;;;6.50;99.90;;;6.68;85.00;101748.03;5073383;28;20045;-78
2021/01/11 06:20:44;;;;;;;39.53;23.47;;;6.50;99.90;;;6.68;84.82;101747.19;5073108;28;20440;-78
2021/01/11 06:23:14;;;;;;;29.70;21.80;;;6.50;99.90;;;6.53;84.89;101731.88;5073052;28;20041;-78
2021/01/11 06:25:46;;;;;;;;;;;6.50;99.90;;;6.71;85.07;101752.50;5073462;28;20045;-78
2021/01/11 06:28:14;;;;;;;26.23;21.03;;;6.50;99.90;;;6.74;84.77;101756.09;5072535;28;20410;-78
2021/01/11 06:30:46;;;;;;;33.30;21.70;;;6.50;99.90;;;6.70;84.85;101741.09;5072401;28;20115;-78
2021/01/11 06:33:25;;;;;;;27.10;21.13;;;6.50;99.90;;;6.84;84.66;101747.59;5072468;28;20177;-76
2021/01/11 06:35:56;;;;;;;24.33;18.33;;;6.60;99.90;;;6.78;84.44;101749.16;5071378;28;20044;-79
2021/01/11 06:38:31;;;;;;;25.35;18.13;;;6.60;99.90;;;6.84;84.61;101738.78;5072415;28;20048;-78
2021/01/11 06:41:13;;;;;;;23.10;17.03;;;6.60;99.90;;;6.91;84.50;101736.34;5072750;28;20055;-78
2021/01/11 06:43:46;;;;;;;26.43;17.10;;;6.70;99.90;;;6.75;84.16;101717.56;5071085;28;20145;-76
2021/01/11 06:46:45;;;;;;;20.47;14.33;;;6.70;99.90;;;6.71;84.17;101700.81;5071293;28;20139;-79
2021/01/11 06:49:26;;;;;;;18.03;13.90;;;6.60;99.90;;;6.92;84.28;101725.00;5072619;28;20083;-79
2021/01/11 06:52:06;;;;;;;23.00;14.73;;;6.70;99.90;;;6.90;84.03;101721.44;5072536;28;20088;-79
2021/01/11 06:54:43;;;;;;;18.40;13.30;;;6.70;99.90;;;6.69;84.04;101693.75;5073074;28;20044;-79
2021/01/11 06:57:24;;;;;;;20.20;12.70;;;6.70;99.90;;;6.97;84.08;101725.97;5072530;28;20053;-77
2021/01/11 06:59:57;;;;;;;20.23;12.25;;;6.70;99.90;;;6.97;84.04;101719.81;5072500;28;20066;-77
2021/01/11 07:02:29;;;;;;;16.60;11.87;;;6.70;99.90;;;7.03;83.61;101719.97;5072433;28;20045;-79
2021/01/11 07:04:57;;;;;;;20.80;11.97;;;6.80;99.90;;;6.99;83.93;101708.50;5072146;28;20490;-78
2021/01/11 07:07:27;;;;;;;13.45;10.10;;;6.80;99.90;;;7.09;83.39;101706.97;5072054;28;20048;-77
2021/01/11 07:09:58;;;;;;;15.97;10.97;;;6.80;99.90;;;7.09;83.57;101706.97;5071900;28;20048;-79
2021/01/11 07:12:26;;;;;;;;;;;6.80;99.90;;;7.15;83.12;101707.09;5072805;28;20051;-79
2021/01/11 07:14:56;;;;;;;22.97;15.00;;;6.90;99.90;;;7.08;82.82;101705.22;5072179;28;19935;-79
2021/01/11 07:17:39;;;;;;;24.30;16.00;;;6.90;99.90;;;7.09;82.81;101707.88;5071963;28;20055;-78
2021/01/11 07:20:10;;;;;;;25.00;16.63;;;6.90;99.90;;;6.97;82.81;101693.53;5072355;28;20037;-78
2021/01/11 07:22:40;;;;;;;23.30;18.60;;;6.80;99.90;;;6.77;83.10;101705.34;5072037;28;20041;-79
2021/01/11 07:25:17;;;;;;;25.25;18.88;;;6.70;99.90;;;6.75;83.27;101704.41;5071916;28;20055;-79
2021/01/11 07:27:45;;;;;;;28.83;19.87;;;6.60;99.90;;;6.70;83.23;101722.69;5071998;28;20098;-79
2021/01/11 07:30:16;;;;;;;24.67;19.93;;;6.50;99.90;;;6.66;83.64;101712.94;5071837;28;20451;-78
2021/01/11 07:32:45;;;;;;;25.97;19.20;;;6.50;99.90;;;6.64;83.65;101708.53;5071771;28;20044;-78
2021/01/11 07:35:12;;;;;;;24.30;18.60;;;6.40;99.90;;;6.57;83.79;101696.06;5070649;28;20076;-78
2021/01/11 07:37:41;;;;;;;26.70;20.60;;;6.40;99.90;;;6.57;84.09;101701.31;5071631;28;20512;-76
2021/01/11 07:40:11;;;;;;;31.07;22.07;;;6.40;99.90;;;6.25;83.94;101664.59;5072575;28;20095;-78
2021/01/11 07:42:38;;;;;;;29.37;22.47;;;6.30;99.90;;;6.44;84.16;101696.59;5075837;28;20041;-79
2021/01/11 07:45:13;;;;;;;28.20;20.87;;;6.30;99.90;;;6.30;84.42;101702.41;5074657;28;20086;-78
2021/01/11 07:47:51;;;;;;;29.70;20.77;;;6.20;99.90;;;6.36;84.40;101692.06;5076360;28;20032;-78
2021/01/11 07:50:22;;;;;;;29.13;21.30;;;6.20;99.90;;;6.34;84.65;101704.25;5075938;28;20083;-79
2021/01/11 07:52:49;;;;;;;30.63;21.95;;;6.20;99.90;;;6.31;85.03;101693.66;5075418;28;20056;-79
2021/01/11 07:55:28;;;;;;;29.47;22.43;;;6.10;99.90;;;6.20;84.85;101671.47;5075528;28;20056;-78
2021/01/11 07:58:01;;;;;;;33.63;22.57;;;6.10;99.90;;;6.37;84.55;101704.31;5075870;28;20506;-79
2021/01/11 08:00:29;;;;;;;28.53;20.73;;;6.20;99.90;;;6.45;84.53;101698.38;5091310;28;20052;-78
2021/01/11 08:02:58;;;;;;;30.37;21.57;;;6.20;99.90;;;6.50;84.26;101704.66;5075403;28;20037;-78
2021/01/11 08:05:31;;;;;;;29.10;21.17;;;6.30;99.90;;;6.49;84.31;101702.84;5091139;28;20507;-78
2021/01/11 08:08:05;;;;;;;26.33;19.57;;;6.30;99.90;;;6.50;84.51;101699.41;5075234;28;20052;-78
2021/01/11 08:10:33;;;;;;;27.63;19.77;;;6.30;99.90;;;6.58;83.99;101697.84;5075585;28;20044;-77
2021/01/11 08:13:05;;;;;;;26.80;20.17;;;6.40;99.90;;;6.53;83.86;101692.47;5075446;28;20048;-78
2021/01/11 08:15:32;;;;;;;30.97;20.73;;;6.40;99.90;;;6.49;84.20;101702.84;5075397;28;20048;-79
2021/01/11 08:18:02;;;;;;;24.27;19.57;;;6.30;99.90;;;6.58;84.06;101703.09;5074052;28;20144;-80
2021/01/11 08:20:30;;;;;;;29.27;19.80;;;6.40;99.90;;;6.45;84.13;101696.63;5075408;28;20059;-79
2021/01/11 08:23:06;;;;;;;29.33;20.03;;;6.40;99.90;;;6.37;84.30;101671.91;5075257;28;20414;-79
2021/01/11 08:25:34;;;;;;;32.03;19.83;;;6.40;99.90;;;6.59;83.92;101694.34;5075151;28;20055;-77
2021/01/11 08:28:04;;;;;;;26.33;19.60;;;6.30;99.90;;;6.53;84.05;101699.47;5074924;28;20058;-79
2021/01/11 08:30:32;;;;;;;27.13;20.40;;;6.30;99.90;;;6.55;84.34;101697.75;5075146;28;20098;-76
2021/01/11 08:33:08;;;;;;;25.07;18.10;;;6.40;99.90;;;6.24;84.19;101654.97;5074764;28;20063;-77
2021/01/11 08:35:38;;;;;;;26.47;19.50;;;6.40;99.90;;;6.57;84.33;101698.69;5075192;28;20044;-78
2021/01/11 08:38:09;;;;;;;25.27;19.55;;;6.30;99.90;;;6.33;84.40;101678.81;5075329;28;20131;-78
2021/01/11 08:40:38;;;;;;;24.70;18.93;;;6.30;99.90;;;6.46;84.82;101694.91;5075073;28;20041;-79
2021/01/11 08:43:16;;;;;;;28.83;20.92;;;6.30;99.90;;;6.32;84.70;101656.03;5074803;28;20052;-78
2021/01/11 08:45:45;;;;;;;27.57;20.00;;;6.30;99.90;;;6.45;84.81;101695.75;5074893;28;20045;-79
2021/01/11 08:48:15;;;;;;;26.30;20.87;;;6.30;99.90;;;6.48;84.58;101685.31;5074439;28;20490;-79
2021/01/11 08:50:59;;;;;;;25.53;19.20;;;6.30;99.90;;;6.52;84.53;101697.69;5074726;28;20459;-78
2021/01/11 08:53:28;;;;;;;26.60;19.55;;;6.30;99.90;;;6.47;84.64;101680.91;5073858;28;20044;-78
2021/01/11 08:56:00;;;;;;;25.75;20.17;;;6.30;99.90;;;6.47;84.74;101675.66;5074759;28;20052;-78
2021/01/11 08:58:32;;;;;;;31.37;21.13;;;6.30;99.90;;;6.53;84.53;101695.09;5074734;28;20037;-79
2021/01/11 09:01:10;;;;;;;28.20;20.83;;;6.30;99.90;;;6.49;84.84;101692.34;5073303;28;20148;-80
2021/01/11 09:03:47;;;;;;;24.90;19.57;;;6.30;99.90;;;6.55;84.56;101690.78;5089490;28;20072;-79
2021/01/11 09:06:35;;;;;;;27.13;18.93;;;6.40;99.90;;;6.48;84.82;101685.31;5074253;28;20040;-79
2021/01/11 09:09:07;;;;;;;31.17;21.03;;;6.30;99.90;;;6.50;84.88;101689.78;5074004;28;20067;-79
2021/01/11 09:11:36;;;;;;;28.30;20.50;;;6.30;99.90;;;6.42;85.01;101675.56;5074363;28;20052;-79
2021/01/11 09:14:06;;;;;;;27.87;19.20;;;6.30;99.90;;;6.55;84.69;101689.88;5073480;28;20055;-78
2021/01/11 09:16:35;;;;;;;28.00;19.60;;;6.30;99.90;;;6.57;84.57;101691.69;5074414;28;20044;-78
2021/01/11 09:19:07;;;;;;;30.13;20.23;;;6.40;99.90;;;6.52;84.60;101688.06;5074471;28;20056;-78
2021/01/11 09:21:39;;;;;;;25.97;19.90;;;6.40;99.90;;;6.50;84.52;101673.13;5073821;28;20063;-78
2021/01/11 09:24:08;;;;;;;28.90;21.00;;;6.40;99.90;;;6.66;84.38;101689.28;5074170;28;20040;-79
2021/01/11 09:26:36;;;;;;;28.60;20.30;;;6.40;99.90;;;6.62;84.40;101697.94;5074715;28;20036;-79
2021/01/11 09:29:04;;;;;;;25.37;19.90;;;6.40;99.90;;;6.35;84.59;101687.63;5074541;28;20477;-79
2021/01/11 09:31:32;;;;;;;28.27;20.57;;;6.30;99.90;;;6.42;85.02;101691.31;5073904;28;20062;-79
2021/01/11 09:34:02;;;;;;;27.50;21.42;;;6.30;99.90;;;6.38;85.00;101682.47;5074176;28;20041;-79
2021/01/11 09:36:38;;;;;;;28.97;20.13;;;6.30;99.90;;;6.26;84.85;101655.88;5073554;28;20062;-79
2021/01/11 09:39:08;;;;;;;27.50;21.03;;;6.30;99.90;;;6.45;84.88;101686.13;5073714;28;20098;-79
2021/01/11 09:41:41;;;;;;;25.45;19.15;;;6.30;99.90;;;6.44;85.20;101688.72;5074025;28;20100;-78
2021/01/11 09:44:09;;;;;;;28.40;20.17;;;6.30;99.90;;;6.52;85.00;101702.94;5073882;28;20063;-79
2021/01/11 09:46:47;;;;;;;27.02;19.33;;;6.30;99.90;;;6.53;85.12;101704.72;5073965;28;20379;-78
2021/01/11 09:49:15;;;;;;;27.10;19.23;;;6.40;99.90;;;6.58;84.97;101688.19;5073777;28;20041;-80
2021/01/11 09:51:43;;;;;;;30.83;19.43;;;6.40;99.90;;;6.66;84.77;101685.78;5072398;28;20106;-79
2021/01/11 09:54:11;;;;;;;24.53;19.10;;;6.40;99.90;;;6.69;84.39;101697.25;5073560;28;20075;-79
2021/01/11 09:56:41;;;;;;;24.57;18.97;;;6.50;99.90;;;6.65;84.59;101705.03;5073507;28;20040;-79
2021/01/11 09:59:11;;;;;;;25.87;19.63;;;6.50;99.90;;;6.64;84.22;101666.47;5073296;28;20047;-80
2021/01/11 10:01:40;;;;;;;28.17;18.57;;;6.60;99.90;;;6.67;84.10;101690.19;5073700;28;20505;-79
2021/01/11 10:04:08;;;;;;;27.30;18.87;;;6.60;99.90;;;6.70;84.21;101703.38;5073295;28;20049;-79
2021/01/11 10:06:42;;;;;;;25.30;19.63;;;6.50;99.90;;;6.73;84.14;101700.84;5073051;28;20467;-79
2021/01/11 10:09:16;;;;;;;28.83;20.07;;;6.50;99.90;;;6.64;84.30;101696.25;5073062;28;20061;-79
2021/01/11 10:11:46;;;;;;;28.10;19.15;;;6.50;99.90;;;6.61;84.46;101672.53;5088878;28;20052;-79
2021/01/11 10:14:13;;;;;;;30.10;21.13;;;6.50;99.90;;;6.69;84.35;101694.63;5071831;28;20505;-79
2021/01/11 10:16:41;;;;;;;23.30;19.57;;;6.50;99.90;;;6.70;84.31;101687.59;5072883;28;20044;-79
2021/01/11 10:19:10;;;;;;;25.60;20.00;;;6.50;99.90;;;6.81;84.25;101692.31;5073003;28;20048;-78
2021/01/11 10:21:38;;;;;;;30.37;18.93;;;6.60;99.90;;;6.88;83.83;101677.53;5105533;28;20490;-79
2021/01/11 10:24:06;;;;;;;26.10;18.80;;;6.60;99.90;;;6.80;83.82;101663.31;5072724;28;20498;-79
2021/01/11 10:26:35;;;;;;;26.30;18.13;;;6.60;99.90;;;6.87;83.78;101675.78;5072841;28;20040;-78
2021/01/11 10:29:04;;;;;;;25.53;17.67;;;6.70;99.90;;;6.78;83.76;101634.38;5072608;28;20040;-79
2021/01/11 10:31:31;;;;;;;26.40;18.20;;;6.70;99.90;;;6.23;83.50;101541.97;5071472;28;20052;-78